Lake Clarke, Florida
Current Conditions -  °F | °C
As of 4:53 AM on Sunday 25 Jan 2015 (Local Time) from KPBI Reporting Station
Clear Clear  
Wind Chill: 45°   Ceiling: Unl
Heat Index: 49°   Visibility: 10mi
Dew Point: 45°   Wind: 10mph
Humidity: 86%   Direction: 310°NW
Pressure: 30.02"   Gusts: NA
Location:  26.6662°N, 80.0908°W
Report Text: KPBI 250953Z 31009KT 10SM CLR 09/07 A3002 RMK AO2 SLP166 T00940072
Loading
Personal Weather Stations






























Interactive Weather Map New forecast layout! Learn more

10-Day Weather Forecast

Advertisements
Track Severe Weather on mobile